sensor_id;sensor_type;location;lat;lon;timestamp;temperature;humidity
1347;DHT22;667;48.796;9.480;2023-07-29T00:01:09;20.10;92.80
1347;DHT22;667;48.796;9.480;2023-07-29T00:03:35;20.20;92.80
1347;DHT22;667;48.796;9.480;2023-07-29T00:06:00;20.10;92.70
1347;DHT22;667;48.796;9.480;2023-07-29T00:08:26;20.10;92.70
1347;DHT22;667;48.796;9.480;2023-07-29T00:10:51;20.10;92.70
1347;DHT22;667;48.796;9.480;2023-07-29T00:13:17;20.10;92.60
1347;DHT22;667;48.796;9.480;2023-07-29T00:15:43;20.10;92.70
1347;DHT22;667;48.796;9.480;2023-07-29T00:18:08;20.10;92.60
1347;DHT22;667;48.796;9.480;2023-07-29T00:20:34;20.10;92.60
1347;DHT22;667;48.796;9.480;2023-07-29T00:22:59;20.10;92.60
1347;DHT22;667;48.796;9.480;2023-07-29T00:25:26;20.10;92.60
1347;DHT22;667;48.796;9.480;2023-07-29T00:27:55;20.00;92.60
1347;DHT22;667;48.796;9.480;2023-07-29T00:30:21;20.00;92.90
1347;DHT22;667;48.796;9.480;2023-07-29T00:32:47;20.00;92.50
1347;DHT22;667;48.796;9.480;2023-07-29T00:35:13;20.00;92.50
1347;DHT22;667;48.796;9.480;2023-07-29T00:37:38;20.00;92.50
1347;DHT22;667;48.796;9.480;2023-07-29T00:40:20;20.00;92.50
1347;DHT22;667;48.796;9.480;2023-07-29T00:42:46;20.00;92.50
1347;DHT22;667;48.796;9.480;2023-07-29T00:45:12;20.00;92.50
1347;DHT22;667;48.796;9.480;2023-07-29T00:47:38;19.90;92.50
1347;DHT22;667;48.796;9.480;2023-07-29T00:50:07;19.90;92.50
1347;DHT22;667;48.796;9.480;2023-07-29T00:52:34;19.90;92.60
1347;DHT22;667;48.796;9.480;2023-07-29T00:55:00;19.90;92.50
1347;DHT22;667;48.796;9.480;2023-07-29T00:57:26;20.00;92.60
1347;DHT22;667;48.796;9.480;2023-07-29T00:59:53;19.90;92.60
1347;DHT22;667;48.796;9.480;2023-07-29T01:02:19;19.90;92.70
1347;DHT22;667;48.796;9.480;2023-07-29T01:04:45;19.90;92.70
1347;DHT22;667;48.796;9.480;2023-07-29T01:12:36;19.90;92.90
1347;DHT22;667;48.796;9.480;2023-07-29T01:15:11;19.90;93.00
1347;DHT22;667;48.796;9.480;2023-07-29T01:17:43;19.90;93.00
1347;DHT22;667;48.796;9.480;2023-07-29T01:20:14;19.90;93.00
1347;DHT22;667;48.796;9.480;2023-07-29T01:22:41;19.90;93.00
1347;DHT22;667;48.796;9.480;2023-07-29T01:25:07;19.90;93.00
1347;DHT22;667;48.796;9.480;2023-07-29T01:27:33;19.90;93.10
1347;DHT22;667;48.796;9.480;2023-07-29T01:29:59;19.90;93.00
1347;DHT22;667;48.796;9.480;2023-07-29T01:32:36;20.00;93.10
1347;DHT22;667;48.796;9.480;2023-07-29T01:35:09;19.90;93.10
1347;DHT22;667;48.796;9.480;2023-07-29T01:37:37;20.00;93.10
1347;DHT22;667;48.796;9.480;2023-07-29T01:40:04;20.00;93.10
1347;DHT22;667;48.796;9.480;2023-07-29T01:42:31;19.90;93.00
1347;DHT22;667;48.796;9.480;2023-07-29T01:44:57;20.00;93.10
1347;DHT22;667;48.796;9.480;2023-07-29T01:47:23;19.90;93.00
1347;DHT22;667;48.796;9.480;2023-07-29T01:49:48;19.90;93.00
1347;DHT22;667;48.796;9.480;2023-07-29T01:52:14;19.90;93.00
1347;DHT22;667;48.796;9.480;2023-07-29T01:54:39;19.90;93.00
1347;DHT22;667;48.796;9.480;2023-07-29T01:57:05;20.00;93.10
1347;DHT22;667;48.796;9.480;2023-07-29T01:59:30;19.90;93.00
1347;DHT22;667;48.796;9.480;2023-07-29T02:01:56;19.90;93.00
1347;DHT22;667;48.796;9.480;2023-07-29T02:04:22;19.90;93.00
1347;DHT22;667;48.796;9.480;2023-07-29T02:06:48;19.90;93.10
1347;DHT22;667;48.796;9.480;2023-07-29T02:09:13;19.90;93.10
1347;DHT22;667;48.796;9.480;2023-07-29T02:11:39;19.90;93.20
1347;DHT22;667;48.796;9.480;2023-07-29T02:14:04;19.80;93.10
1347;DHT22;667;48.796;9.480;2023-07-29T02:16:30;19.80;93.10
1347;DHT22;667;48.796;9.480;2023-07-29T02:18:58;19.80;93.20
1347;DHT22;667;48.796;9.480;2023-07-29T02:21:24;19.90;93.20
1347;DHT22;667;48.796;9.480;2023-07-29T02:23:50;19.90;93.30
1347;DHT22;667;48.796;9.480;2023-07-29T02:26:16;19.90;93.30
1347;DHT22;667;48.796;9.480;2023-07-29T02:28:42;19.90;93.30
1347;DHT22;667;48.796;9.480;2023-07-29T02:31:22;19.90;93.30
1347;DHT22;667;48.796;9.480;2023-07-29T02:33:48;19.90;93.30
1347;DHT22;667;48.796;9.480;2023-07-29T02:36:15;19.90;93.30
1347;DHT22;667;48.796;9.480;2023-07-29T02:38:41;19.90;93.30
1347;DHT22;667;48.796;9.480;2023-07-29T02:41:08;19.90;93.20
1347;DHT22;667;48.796;9.480;2023-07-29T02:43:35;19.90;93.10
1347;DHT22;667;48.796;9.480;2023-07-29T02:46:01;19.90;93.10
1347;DHT22;667;48.796;9.480;2023-07-29T02:48:27;19.90;93.10
1347;DHT22;667;48.796;9.480;2023-07-29T02:50:53;19.90;93.10
1347;DHT22;667;48.796;9.480;2023-07-29T02:53:22;19.90;93.10
1347;DHT22;667;48.796;9.480;2023-07-29T02:55:48;19.90;93.10
1347;DHT22;667;48.796;9.480;2023-07-29T02:58:13;19.90;93.00
1347;DHT22;667;48.796;9.480;2023-07-29T03:00:39;19.80;93.00
1347;DHT22;667;48.796;9.480;2023-07-29T03:03:07;19.80;92.90
1347;DHT22;667;48.796;9.480;2023-07-29T03:05:33;19.80;92.90
1347;DHT22;667;48.796;9.480;2023-07-29T03:07:59;19.80;92.90
1347;DHT22;667;48.796;9.480;2023-07-29T03:10:25;19.80;92.90
1347;DHT22;667;48.796;9.480;2023-07-29T03:12:50;19.80;92.80
1347;DHT22;667;48.796;9.480;2023-07-29T03:15:16;19.80;92.80
1347;DHT22;667;48.796;9.480;2023-07-29T03:17:42;19.80;92.80
1347;DHT22;667;48.796;9.480;2023-07-29T03:20:08;19.80;92.80
1347;DHT22;667;48.796;9.480;2023-07-29T03:22:33;19.80;92.80
1347;DHT22;667;48.796;9.480;2023-07-29T03:24:59;19.80;92.80
1347;DHT22;667;48.796;9.480;2023-07-29T03:27:24;19.80;92.80
1347;DHT22;667;48.796;9.480;2023-07-29T03:29:50;19.70;92.70
1347;DHT22;667;48.796;9.480;2023-07-29T03:32:17;19.70;92.60
1347;DHT22;667;48.796;9.480;2023-07-29T03:34:42;19.70;92.70
1347;DHT22;667;48.796;9.480;2023-07-29T03:37:08;19.70;92.60
1347;DHT22;667;48.796;9.480;2023-07-29T03:39:34;19.70;92.60
1347;DHT22;667;48.796;9.480;2023-07-29T03:42:00;19.60;92.60
1347;DHT22;667;48.796;9.480;2023-07-29T03:44:25;19.60;92.60
1347;DHT22;667;48.796;9.480;2023-07-29T03:46:51;19.60;92.60
1347;DHT22;667;48.796;9.480;2023-07-29T03:49:16;19.60;92.60
1347;DHT22;667;48.796;9.480;2023-07-29T03:51:42;19.60;92.60
1347;DHT22;667;48.796;9.480;2023-07-29T03:54:07;19.60;92.60
1347;DHT22;667;48.796;9.480;2023-07-29T03:56:33;19.60;92.60
1347;DHT22;667;48.796;9.480;2023-07-29T03:59:04;19.60;92.60
1347;DHT22;667;48.796;9.480;2023-07-29T04:01:30;19.60;92.60
1347;DHT22;667;48.796;9.480;2023-07-29T04:03:56;19.60;92.60
1347;DHT22;667;48.796;9.480;2023-07-29T04:06:21;19.60;92.60
1347;DHT22;667;48.796;9.480;2023-07-29T04:08:48;19.60;92.70
1347;DHT22;667;48.796;9.480;2023-07-29T04:11:13;19.60;92.70
1347;DHT22;667;48.796;9.480;2023-07-29T04:13:39;19.70;92.70
1347;DHT22;667;48.796;9.480;2023-07-29T04:16:05;19.70;92.80
1347;DHT22;667;48.796;9.480;2023-07-29T04:18:31;19.70;92.80
1347;DHT22;667;48.796;9.480;2023-07-29T04:20:56;19.70;92.80
1347;DHT22;667;48.796;9.480;2023-07-29T04:23:22;19.60;92.70
1347;DHT22;667;48.796;9.480;2023-07-29T04:25:47;19.70;92.80
1347;DHT22;667;48.796;9.480;2023-07-29T04:28:13;19.70;92.80
1347;DHT22;667;48.796;9.480;2023-07-29T04:30:39;19.70;92.90
1347;DHT22;667;48.796;9.480;2023-07-29T04:33:04;19.70;92.90
1347;DHT22;667;48.796;9.480;2023-07-29T04:35:30;19.70;93.00
1347;DHT22;667;48.796;9.480;2023-07-29T04:37:55;19.70;93.10
1347;DHT22;667;48.796;9.480;2023-07-29T04:40:21;19.70;93.00
1347;DHT22;667;48.796;9.480;2023-07-29T04:42:49;19.70;93.00
1347;DHT22;667;48.796;9.480;2023-07-29T04:45:14;19.70;93.10
1347;DHT22;667;48.796;9.480;2023-07-29T04:47:41;19.70;93.20
1347;DHT22;667;48.796;9.480;2023-07-29T04:50:07;19.70;93.30
1347;DHT22;667;48.796;9.480;2023-07-29T04:52:33;19.70;93.40
1347;DHT22;667;48.796;9.480;2023-07-29T04:54:58;19.70;93.50
1347;DHT22;667;48.796;9.480;2023-07-29T04:57:24;19.70;93.60
1347;DHT22;667;48.796;9.480;2023-07-29T04:59:50;19.70;93.60
1347;DHT22;667;48.796;9.480;2023-07-29T05:02:15;19.70;93.60
1347;DHT22;667;48.796;9.480;2023-07-29T05:04:41;19.70;93.60
1347;DHT22;667;48.796;9.480;2023-07-29T05:07:06;19.80;93.80
1347;DHT22;667;48.796;9.480;2023-07-29T05:09:32;19.80;93.70
1347;DHT22;667;48.796;9.480;2023-07-29T05:11:57;19.80;93.70
1347;DHT22;667;48.796;9.480;2023-07-29T05:14:23;19.80;93.80
1347;DHT22;667;48.796;9.480;2023-07-29T05:16:49;19.70;93.80
1347;DHT22;667;48.796;9.480;2023-07-29T05:19:15;19.80;93.80
1347;DHT22;667;48.796;9.480;2023-07-29T05:21:40;19.80;93.90
1347;DHT22;667;48.796;9.480;2023-07-29T05:24:06;19.80;93.90
1347;DHT22;667;48.796;9.480;2023-07-29T05:26:32;19.80;93.90
1347;DHT22;667;48.796;9.480;2023-07-29T05:28:57;19.80;94.00
1347;DHT22;667;48.796;9.480;2023-07-29T05:31:23;19.80;94.00
1347;DHT22;667;48.796;9.480;2023-07-29T05:33:49;19.80;94.10
1347;DHT22;667;48.796;9.480;2023-07-29T05:36:14;19.80;94.20
1347;DHT22;667;48.796;9.480;2023-07-29T05:38:41;19.80;94.20
1347;DHT22;667;48.796;9.480;2023-07-29T05:41:06;19.80;94.30
1347;DHT22;667;48.796;9.480;2023-07-29T05:43:32;19.90;94.40
1347;DHT22;667;48.796;9.480;2023-07-29T05:45:57;19.90;94.40
1347;DHT22;667;48.796;9.480;2023-07-29T05:48:23;19.90;94.50
1347;DHT22;667;48.796;9.480;2023-07-29T05:50:49;19.90;94.50
1347;DHT22;667;48.796;9.480;2023-07-29T05:53:15;19.90;94.50
1347;DHT22;667;48.796;9.480;2023-07-29T05:55:41;19.90;94.40
1347;DHT22;667;48.796;9.480;2023-07-29T05:58:06;19.90;94.60
1347;DHT22;667;48.796;9.480;2023-07-29T06:00:32;19.90;94.60
1347;DHT22;667;48.796;9.480;2023-07-29T06:02:58;19.90;94.70
1347;DHT22;667;48.796;9.480;2023-07-29T06:05:23;20.00;94.80
1347;DHT22;667;48.796;9.480;2023-07-29T06:07:49;20.00;94.80
1347;DHT22;667;48.796;9.480;2023-07-29T06:10:15;20.00;94.90
1347;DHT22;667;48.796;9.480;2023-07-29T06:12:45;20.10;95.00
1347;DHT22;667;48.796;9.480;2023-07-29T06:15:11;20.10;95.00
1347;DHT22;667;48.796;9.480;2023-07-29T06:20:07;20.20;95.10
1347;DHT22;667;48.796;9.480;2023-07-29T06:22:32;20.20;95.20
1347;DHT22;667;48.796;9.480;2023-07-29T06:24:58;20.20;95.10
1347;DHT22;667;48.796;9.480;2023-07-29T06:27:24;20.30;95.20
1347;DHT22;667;48.796;9.480;2023-07-29T06:29:50;20.30;95.30
1347;DHT22;667;48.796;9.480;2023-07-29T06:32:16;20.30;95.40
1347;DHT22;667;48.796;9.480;2023-07-29T06:34:41;20.40;95.40
1347;DHT22;667;48.796;9.480;2023-07-29T06:37:07;20.40;95.60
1347;DHT22;667;48.796;9.480;2023-07-29T06:39:32;20.50;95.90
1347;DHT22;667;48.796;9.480;2023-07-29T06:41:58;20.50;95.90
1347;DHT22;667;48.796;9.480;2023-07-29T06:44:24;20.60;96.00
1347;DHT22;667;48.796;9.480;2023-07-29T06:46:49;20.60;96.00
1347;DHT22;667;48.796;9.480;2023-07-29T06:49:15;20.70;96.00
1347;DHT22;667;48.796;9.480;2023-07-29T06:51:40;20.70;96.00
1347;DHT22;667;48.796;9.480;2023-07-29T06:54:06;20.70;96.00
1347;DHT22;667;48.796;9.480;2023-07-29T06:56:31;20.80;96.10
1347;DHT22;667;48.796;9.480;2023-07-29T06:58:57;20.80;96.40
1347;DHT22;667;48.796;9.480;2023-07-29T07:01:23;20.80;95.70
1347;DHT22;667;48.796;9.480;2023-07-29T07:03:48;20.90;95.70
1347;DHT22;667;48.796;9.480;2023-07-29T07:06:14;20.90;95.60
1347;DHT22;667;48.796;9.480;2023-07-29T07:08:39;20.90;95.40
1347;DHT22;667;48.796;9.480;2023-07-29T07:11:05;20.90;95.40
1347;DHT22;667;48.796;9.480;2023-07-29T07:13:30;20.90;95.40
1347;DHT22;667;48.796;9.480;2023-07-29T07:15:56;20.90;95.60
1347;DHT22;667;48.796;9.480;2023-07-29T07:18:22;21.00;95.60
1347;DHT22;667;48.796;9.480;2023-07-29T07:20:49;20.90;95.60
1347;DHT22;667;48.796;9.480;2023-07-29T07:23:15;20.90;95.60
1347;DHT22;667;48.796;9.480;2023-07-29T07:25:41;20.90;95.50
1347;DHT22;667;48.796;9.480;2023-07-29T07:28:08;20.90;95.30
1347;DHT22;667;48.796;9.480;2023-07-29T07:30:34;20.90;95.20
1347;DHT22;667;48.796;9.480;2023-07-29T07:33:00;20.90;95.10
1347;DHT22;667;48.796;9.480;2023-07-29T07:35:26;20.90;95.10
1347;DHT22;667;48.796;9.480;2023-07-29T07:37:52;20.80;95.10
1347;DHT22;667;48.796;9.480;2023-07-29T07:40:17;20.80;95.00
1347;DHT22;667;48.796;9.480;2023-07-29T07:42:43;20.80;95.00
1347;DHT22;667;48.796;9.480;2023-07-29T07:45:09;20.80;95.10
1347;DHT22;667;48.796;9.480;2023-07-29T07:47:34;20.80;95.20
1347;DHT22;667;48.796;9.480;2023-07-29T07:50:00;20.80;95.30
1347;DHT22;667;48.796;9.480;2023-07-29T07:52:25;20.70;95.30
1347;DHT22;667;48.796;9.480;2023-07-29T07:54:54;20.70;95.40
1347;DHT22;667;48.796;9.480;2023-07-29T07:57:21;20.70;95.60
1347;DHT22;667;48.796;9.480;2023-07-29T07:59:47;20.80;95.70
1347;DHT22;667;48.796;9.480;2023-07-29T08:02:12;20.80;95.90
1347;DHT22;667;48.796;9.480;2023-07-29T08:04:38;20.90;96.10
1347;DHT22;667;48.796;9.480;2023-07-29T08:07:04;20.90;96.10
1347;DHT22;667;48.796;9.480;2023-07-29T08:09:30;21.00;95.90
1347;DHT22;667;48.796;9.480;2023-07-29T08:11:55;21.00;95.90
1347;DHT22;667;48.796;9.480;2023-07-29T08:14:21;21.00;96.00
1347;DHT22;667;48.796;9.480;2023-07-29T08:16:46;21.00;96.00
1347;DHT22;667;48.796;9.480;2023-07-29T08:19:12;21.10;96.10
1347;DHT22;667;48.796;9.480;2023-07-29T08:21:38;21.10;96.00
1347;DHT22;667;48.796;9.480;2023-07-29T08:24:03;21.10;95.90
1347;DHT22;667;48.796;9.480;2023-07-29T08:26:29;21.10;95.80
1347;DHT22;667;48.796;9.480;2023-07-29T08:28:55;21.10;95.80
1347;DHT22;667;48.796;9.480;2023-07-29T08:31:20;21.20;95.90
1347;DHT22;667;48.796;9.480;2023-07-29T08:33:46;21.20;95.80
1347;DHT22;667;48.796;9.480;2023-07-29T08:36:11;21.20;95.70
1347;DHT22;667;48.796;9.480;2023-07-29T08:38:37;21.20;95.70
1347;DHT22;667;48.796;9.480;2023-07-29T08:43:45;21.30;95.60
1347;DHT22;667;48.796;9.480;2023-07-29T08:46:13;21.30;95.70
1347;DHT22;667;48.796;9.480;2023-07-29T08:48:43;21.50;95.90
1347;DHT22;667;48.796;9.480;2023-07-29T08:51:09;21.50;95.70
1347;DHT22;667;48.796;9.480;2023-07-29T08:53:36;21.60;95.80
1347;DHT22;667;48.796;9.480;2023-07-29T08:56:02;21.70;95.60
1347;DHT22;667;48.796;9.480;2023-07-29T08:58:29;21.70;95.60
1347;DHT22;667;48.796;9.480;2023-07-29T09:00:54;21.80;95.70
1347;DHT22;667;48.796;9.480;2023-07-29T09:03:21;21.90;95.60
1347;DHT22;667;48.796;9.480;2023-07-29T09:05:47;22.00;95.60
1347;DHT22;667;48.796;9.480;2023-07-29T09:08:14;22.00;95.50
1347;DHT22;667;48.796;9.480;2023-07-29T09:10:40;22.10;95.60
1347;DHT22;667;48.796;9.480;2023-07-29T09:13:06;22.20;94.90
1347;DHT22;667;48.796;9.480;2023-07-29T09:15:34;22.30;94.50
1347;DHT22;667;48.796;9.480;2023-07-29T09:18:15;22.40;93.90
1347;DHT22;667;48.796;9.480;2023-07-29T09:20:41;22.40;94.30
1347;DHT22;667;48.796;9.480;2023-07-29T09:23:09;22.60;94.60
1347;DHT22;667;48.796;9.480;2023-07-29T09:25:37;22.70;93.40
1347;DHT22;667;48.796;9.480;2023-07-29T09:28:12;22.80;93.60
1347;DHT22;667;48.796;9.480;2023-07-29T09:30:47;22.80;93.10
1347;DHT22;667;48.796;9.480;2023-07-29T09:33:13;22.90;92.70
1347;DHT22;667;48.796;9.480;2023-07-29T09:35:39;22.90;92.30
1347;DHT22;667;48.796;9.480;2023-07-29T09:38:05;22.90;92.10
1347;DHT22;667;48.796;9.480;2023-07-29T09:40:39;23.00;92.10
1347;DHT22;667;48.796;9.480;2023-07-29T09:43:06;23.00;91.90
1347;DHT22;667;48.796;9.480;2023-07-29T09:45:34;23.00;91.80
1347;DHT22;667;48.796;9.480;2023-07-29T09:48:00;23.10;91.40
1347;DHT22;667;48.796;9.480;2023-07-29T09:50:27;23.10;91.50
1347;DHT22;667;48.796;9.480;2023-07-29T09:52:54;23.20;91.60
1347;DHT22;667;48.796;9.480;2023-07-29T09:55:24;23.20;91.60
1347;DHT22;667;48.796;9.480;2023-07-29T09:58:00;23.20;91.60
1347;DHT22;667;48.796;9.480;2023-07-29T10:00:28;23.30;91.80
1347;DHT22;667;48.796;9.480;2023-07-29T10:02:56;23.40;92.20
1347;DHT22;667;48.796;9.480;2023-07-29T10:05:22;23.60;92.40
1347;DHT22;667;48.796;9.480;2023-07-29T10:07:49;23.70;91.90
1347;DHT22;667;48.796;9.480;2023-07-29T10:10:15;23.80;91.70
1347;DHT22;667;48.796;9.480;2023-07-29T10:12:41;23.80;90.70
1347;DHT22;667;48.796;9.480;2023-07-29T10:15:08;23.90;89.50
1347;DHT22;667;48.796;9.480;2023-07-29T10:17:36;24.00;88.80
1347;DHT22;667;48.796;9.480;2023-07-29T10:20:03;24.10;88.70
1347;DHT22;667;48.796;9.480;2023-07-29T10:22:40;24.20;90.20
1347;DHT22;667;48.796;9.480;2023-07-29T10:25:22;24.30;89.90
1347;DHT22;667;48.796;9.480;2023-07-29T10:27:59;24.50;88.50
1347;DHT22;667;48.796;9.480;2023-07-29T10:30:27;24.60;89.20
1347;DHT22;667;48.796;9.480;2023-07-29T10:32:53;24.80;89.90
1347;DHT22;667;48.796;9.480;2023-07-29T10:35:19;24.90;87.90
1347;DHT22;667;48.796;9.480;2023-07-29T10:37:45;25.10;87.80
1347;DHT22;667;48.796;9.480;2023-07-29T10:40:12;25.30;87.90
1347;DHT22;667;48.796;9.480;2023-07-29T10:42:38;25.40;87.30
1347;DHT22;667;48.796;9.480;2023-07-29T10:45:20;25.50;85.80
1347;DHT22;667;48.796;9.480;2023-07-29T10:47:46;25.60;83.10
1347;DHT22;667;48.796;9.480;2023-07-29T10:50:20;25.40;78.90
1347;DHT22;667;48.796;9.480;2023-07-29T10:52:52;25.30;78.20
1347;DHT22;667;48.796;9.480;2023-07-29T10:57:50;24.90;79.70
1347;DHT22;667;48.796;9.480;2023-07-29T11:00:18;24.80;79.90
1347;DHT22;667;48.796;9.480;2023-07-29T11:02:56;24.60;80.60
1347;DHT22;667;48.796;9.480;2023-07-29T11:05:25;24.50;81.50
1347;DHT22;667;48.796;9.480;2023-07-29T11:07:50;24.30;82.50
1347;DHT22;667;48.796;9.480;2023-07-29T11:10:16;24.30;83.70
1347;DHT22;667;48.796;9.480;2023-07-29T11:12:49;24.20;84.50
1347;DHT22;667;48.796;9.480;2023-07-29T11:17:53;24.10;85.80
1347;DHT22;667;48.796;9.480;2023-07-29T11:20:20;24.10;86.10
1347;DHT22;667;48.796;9.480;2023-07-29T11:22:47;24.10;86.30
1347;DHT22;667;48.796;9.480;2023-07-29T11:25:15;24.20;86.00
1347;DHT22;667;48.796;9.480;2023-07-29T11:27:41;24.20;86.70
1347;DHT22;667;48.796;9.480;2023-07-29T11:30:09;24.30;87.50
1347;DHT22;667;48.796;9.480;2023-07-29T11:32:36;24.40;87.20
1347;DHT22;667;48.796;9.480;2023-07-29T11:35:07;24.50;87.10
1347;DHT22;667;48.796;9.480;2023-07-29T11:37:34;24.60;87.50
1347;DHT22;667;48.796;9.480;2023-07-29T11:39:59;24.70;87.10
1347;DHT22;667;48.796;9.480;2023-07-29T11:42:26;24.70;85.90
1347;DHT22;667;48.796;9.480;2023-07-29T11:44:53;24.70;85.20
1347;DHT22;667;48.796;9.480;2023-07-29T11:47:19;24.80;85.60
1347;DHT22;667;48.796;9.480;2023-07-29T11:49:44;24.90;84.60
1347;DHT22;667;48.796;9.480;2023-07-29T11:52:10;24.90;83.70
1347;DHT22;667;48.796;9.480;2023-07-29T11:54:37;24.90;83.60
1347;DHT22;667;48.796;9.480;2023-07-29T11:57:07;24.90;83.50
1347;DHT22;667;48.796;9.480;2023-07-29T11:59:34;24.90;83.90
1347;DHT22;667;48.796;9.480;2023-07-29T12:02:01;24.90;83.20
1347;DHT22;667;48.796;9.480;2023-07-29T12:04:29;25.00;82.50
1347;DHT22;667;48.796;9.480;2023-07-29T12:06:55;25.00;82.70
1347;DHT22;667;48.796;9.480;2023-07-29T12:09:21;25.10;83.10
1347;DHT22;667;48.796;9.480;2023-07-29T12:11:47;25.20;82.20
1347;DHT22;667;48.796;9.480;2023-07-29T12:14:12;25.40;81.70
1347;DHT22;667;48.796;9.480;2023-07-29T12:16:43;25.50;81.50
1347;DHT22;667;48.796;9.480;2023-07-29T12:21:36;25.70;79.50
1347;DHT22;667;48.796;9.480;2023-07-29T12:24:02;25.70;76.80
1347;DHT22;667;48.796;9.480;2023-07-29T12:26:29;25.80;76.00
1347;DHT22;667;48.796;9.480;2023-07-29T12:28:55;25.90;75.10
1347;DHT22;667;48.796;9.480;2023-07-29T12:31:22;25.90;75.10
1347;DHT22;667;48.796;9.480;2023-07-29T12:33:56;26.00;75.00
1347;DHT22;667;48.796;9.480;2023-07-29T12:36:22;26.10;74.90
1347;DHT22;667;48.796;9.480;2023-07-29T12:38:47;26.10;74.20
1347;DHT22;667;48.796;9.480;2023-07-29T12:41:13;26.20;73.10
1347;DHT22;667;48.796;9.480;2023-07-29T12:43:39;26.30;73.10
1347;DHT22;667;48.796;9.480;2023-07-29T12:46:04;26.40;73.50
1347;DHT22;667;48.796;9.480;2023-07-29T12:48:30;26.50;72.30
1347;DHT22;667;48.796;9.480;2023-07-29T12:50:55;26.60;70.30
1347;DHT22;667;48.796;9.480;2023-07-29T12:53:21;26.60;69.30
1347;DHT22;667;48.796;9.480;2023-07-29T12:55:46;26.50;69.10
1347;DHT22;667;48.796;9.480;2023-07-29T12:58:12;26.40;69.50
1347;DHT22;667;48.796;9.480;2023-07-29T13:00:37;26.50;69.10
1347;DHT22;667;48.796;9.480;2023-07-29T13:03:03;26.50;68.80
1347;DHT22;667;48.796;9.480;2023-07-29T13:05:31;26.60;68.60
1347;DHT22;667;48.796;9.480;2023-07-29T13:07:56;26.60;68.00
1347;DHT22;667;48.796;9.480;2023-07-29T13:10:22;26.60;68.10
1347;DHT22;667;48.796;9.480;2023-07-29T13:12:47;26.70;67.80
1347;DHT22;667;48.796;9.480;2023-07-29T13:15:14;26.70;66.50
1347;DHT22;667;48.796;9.480;2023-07-29T13:17:39;26.80;66.20
1347;DHT22;667;48.796;9.480;2023-07-29T13:20:06;26.80;65.60
1347;DHT22;667;48.796;9.480;2023-07-29T13:22:31;26.80;64.80
1347;DHT22;667;48.796;9.480;2023-07-29T13:24:57;26.70;64.40
1347;DHT22;667;48.796;9.480;2023-07-29T13:27:23;26.70;64.60
1347;DHT22;667;48.796;9.480;2023-07-29T13:29:49;26.70;64.30
1347;DHT22;667;48.796;9.480;2023-07-29T13:32:15;26.70;63.00
1347;DHT22;667;48.796;9.480;2023-07-29T13:34:40;26.70;61.20
1347;DHT22;667;48.796;9.480;2023-07-29T13:37:06;26.70;59.80
1347;DHT22;667;48.796;9.480;2023-07-29T13:39:31;26.70;59.30
1347;DHT22;667;48.796;9.480;2023-07-29T13:41:57;26.70;59.90
1347;DHT22;667;48.796;9.480;2023-07-29T13:44:23;26.70;59.80
1347;DHT22;667;48.796;9.480;2023-07-29T13:46:48;26.70;59.80
1347;DHT22;667;48.796;9.480;2023-07-29T13:49:14;26.70;59.70
1347;DHT22;667;48.796;9.480;2023-07-29T13:51:39;26.70;59.50
1347;DHT22;667;48.796;9.480;2023-07-29T13:54:05;26.60;59.00
1347;DHT22;667;48.796;9.480;2023-07-29T13:56:30;26.60;59.20
1347;DHT22;667;48.796;9.480;2023-07-29T13:58:56;26.60;59.70
1347;DHT22;667;48.796;9.480;2023-07-29T14:01:22;26.60;59.70
1347;DHT22;667;48.796;9.480;2023-07-29T14:03:47;26.50;60.90
1347;DHT22;667;48.796;9.480;2023-07-29T14:06:13;26.50;61.80
1347;DHT22;667;48.796;9.480;2023-07-29T14:08:38;26.50;61.50
1347;DHT22;667;48.796;9.480;2023-07-29T14:11:06;26.50;61.80
1347;DHT22;667;48.796;9.480;2023-07-29T14:13:31;26.50;62.30
1347;DHT22;667;48.796;9.480;2023-07-29T14:15:57;26.50;62.90
1347;DHT22;667;48.796;9.480;2023-07-29T14:18:22;26.60;62.30
1347;DHT22;667;48.796;9.480;2023-07-29T14:20:48;26.60;62.10
1347;DHT22;667;48.796;9.480;2023-07-29T14:23:14;26.60;62.40
1347;DHT22;667;48.796;9.480;2023-07-29T14:25:40;26.60;62.40
1347;DHT22;667;48.796;9.480;2023-07-29T14:28:05;26.60;62.00
1347;DHT22;667;48.796;9.480;2023-07-29T14:30:31;26.60;61.90
1347;DHT22;667;48.796;9.480;2023-07-29T14:32:57;26.60;61.80
1347;DHT22;667;48.796;9.480;2023-07-29T14:35:22;26.60;62.00
1347;DHT22;667;48.796;9.480;2023-07-29T14:37:48;26.50;63.00
1347;DHT22;667;48.796;9.480;2023-07-29T14:40:13;26.50;62.40
1347;DHT22;667;48.796;9.480;2023-07-29T14:42:39;26.60;62.10
1347;DHT22;667;48.796;9.480;2023-07-29T14:45:05;26.60;62.00
1347;DHT22;667;48.796;9.480;2023-07-29T14:47:31;26.60;62.30
1347;DHT22;667;48.796;9.480;2023-07-29T14:50:00;26.60;61.40
1347;DHT22;667;48.796;9.480;2023-07-29T14:52:25;26.60;60.80
1347;DHT22;667;48.796;9.480;2023-07-29T14:54:51;26.50;61.20
1347;DHT22;667;48.796;9.480;2023-07-29T14:57:17;26.50;61.10
1347;DHT22;667;48.796;9.480;2023-07-29T14:59:42;26.50;61.20
1347;DHT22;667;48.796;9.480;2023-07-29T15:02:08;26.40;62.30
1347;DHT22;667;48.796;9.480;2023-07-29T15:04:34;26.40;62.90
1347;DHT22;667;48.796;9.480;2023-07-29T15:06:59;26.40;61.60
1347;DHT22;667;48.796;9.480;2023-07-29T15:09:25;26.40;61.50
1347;DHT22;667;48.796;9.480;2023-07-29T15:11:51;26.30;62.20
1347;DHT22;667;48.796;9.480;2023-07-29T15:14:16;26.30;62.80
1347;DHT22;667;48.796;9.480;2023-07-29T15:16:42;26.30;63.30
1347;DHT22;667;48.796;9.480;2023-07-29T15:19:07;26.20;63.40
1347;DHT22;667;48.796;9.480;2023-07-29T15:21:33;26.30;63.50
1347;DHT22;667;48.796;9.480;2023-07-29T15:23:59;26.30;61.80
1347;DHT22;667;48.796;9.480;2023-07-29T15:26:24;26.20;60.60
1347;DHT22;667;48.796;9.480;2023-07-29T15:28:50;26.20;60.80
1347;DHT22;667;48.796;9.480;2023-07-29T15:31:15;26.20;60.60
1347;DHT22;667;48.796;9.480;2023-07-29T15:33:41;26.30;60.10
1347;DHT22;667;48.796;9.480;2023-07-29T15:36:07;26.30;60.50
1347;DHT22;667;48.796;9.480;2023-07-29T15:38:32;26.30;60.20
1347;DHT22;667;48.796;9.480;2023-07-29T15:40:59;26.40;60.40
1347;DHT22;667;48.796;9.480;2023-07-29T15:43:24;26.40;60.90
1347;DHT22;667;48.796;9.480;2023-07-29T15:45:50;26.40;61.00
1347;DHT22;667;48.796;9.480;2023-07-29T15:48:16;26.40;60.70
1347;DHT22;667;48.796;9.480;2023-07-29T15:50:42;26.40;60.90
1347;DHT22;667;48.796;9.480;2023-07-29T15:53:07;26.40;60.80
1347;DHT22;667;48.796;9.480;2023-07-29T15:55:33;26.50;60.90
1347;DHT22;667;48.796;9.480;2023-07-29T15:57:59;26.50;60.80
1347;DHT22;667;48.796;9.480;2023-07-29T16:00:24;26.50;60.10
1347;DHT22;667;48.796;9.480;2023-07-29T16:02:50;26.50;59.50
1347;DHT22;667;48.796;9.480;2023-07-29T16:05:16;26.60;59.80
1347;DHT22;667;48.796;9.480;2023-07-29T16:07:41;26.60;59.40
1347;DHT22;667;48.796;9.480;2023-07-29T16:10:08;26.50;59.00
1347;DHT22;667;48.796;9.480;2023-07-29T16:12:34;26.50;59.00
1347;DHT22;667;48.796;9.480;2023-07-29T16:15:09;26.50;58.60
1347;DHT22;667;48.796;9.480;2023-07-29T16:17:35;26.50;58.70
1347;DHT22;667;48.796;9.480;2023-07-29T16:20:02;26.40;58.80
1347;DHT22;667;48.796;9.480;2023-07-29T16:22:29;26.40;58.80
1347;DHT22;667;48.796;9.480;2023-07-29T16:24:54;26.40;58.80
1347;DHT22;667;48.796;9.480;2023-07-29T16:27:20;26.30;58.70
1347;DHT22;667;48.796;9.480;2023-07-29T16:29:46;26.30;58.20